sensor_id;sensor_type;location;lat;lon;timestamp;pressure;altitude;pressure_sealevel;temperature;humidity
57779;BME280;43608;49.486;9.640;2023-02-02T00:00:15;99079.75;;;4.66;82.48
57779;BME280;43608;49.486;9.640;2023-02-02T00:00:46;99054.13;;;4.55;82.63
57779;BME280;43608;49.486;9.640;2023-02-02T00:01:21;99075.41;;;4.68;82.73
57779;BME280;43608;49.486;9.640;2023-02-02T00:01:54;99086.75;;;4.67;82.59
57779;BME280;43608;49.486;9.640;2023-02-02T00:02:24;99076.13;;;4.60;82.82
57779;BME280;43608;49.486;9.640;2023-02-02T00:02:55;99069.09;;;4.59;82.89
57779;BME280;43608;49.486;9.640;2023-02-02T00:03:25;99069.16;;;4.62;83.20
57779;BME280;43608;49.486;9.640;2023-02-02T00:03:55;99053.03;;;4.49;83.19
57779;BME280;43608;49.486;9.640;2023-02-02T00:04:31;99050.53;;;4.52;83.46
57779;BME280;43608;49.486;9.640;2023-02-02T00:05:02;99078.81;;;4.63;83.63
57779;BME280;43608;49.486;9.640;2023-02-02T00:05:32;99066.50;;;4.61;83.66
57779;BME280;43608;49.486;9.640;2023-02-02T00:06:03;99047.00;;;4.51;83.73
57779;BME280;43608;49.486;9.640;2023-02-02T00:06:33;99059.28;;;4.52;83.92
57779;BME280;43608;49.486;9.640;2023-02-02T00:07:03;99052.13;;;4.46;83.96
57779;BME280;43608;49.486;9.640;2023-02-02T00:07:34;99061.88;;;4.51;84.23
57779;BME280;43608;49.486;9.640;2023-02-02T00:08:04;99066.34;;;4.55;84.28
57779;BME280;43608;49.486;9.640;2023-02-02T00:08:35;99084.81;;;4.58;84.20
57779;BME280;43608;49.486;9.640;2023-02-02T00:09:08;99057.34;;;4.45;84.40
57779;BME280;43608;49.486;9.640;2023-02-02T00:09:39;99084.72;;;4.55;84.66
57779;BME280;43608;49.486;9.640;2023-02-02T00:10:10;99081.09;;;4.50;84.51
57779;BME280;43608;49.486;9.640;2023-02-02T00:10:40;99073.25;;;4.51;84.84
57779;BME280;43608;49.486;9.640;2023-02-02T00:11:11;99074.84;;;4.46;84.99
57779;BME280;43608;49.486;9.640;2023-02-02T00:11:43;99077.66;;;4.52;85.09
57779;BME280;43608;49.486;9.640;2023-02-02T00:12:13;99074.91;;;4.47;85.33
57779;BME280;43608;49.486;9.640;2023-02-02T00:12:44;99083.69;;;4.50;85.31
57779;BME280;43608;49.486;9.640;2023-02-02T00:13:14;99050.09;;;4.35;85.25
57779;BME280;43608;49.486;9.640;2023-02-02T00:13:45;99050.09;;;4.35;85.53
57779;BME280;43608;49.486;9.640;2023-02-02T00:14:16;99080.16;;;4.47;85.68
57779;BME280;43608;49.486;9.640;2023-02-02T00:14:47;99068.69;;;4.44;85.79
57779;BME280;43608;49.486;9.640;2023-02-02T00:15:17;99062.28;;;4.34;85.70
57779;BME280;43608;49.486;9.640;2023-02-02T00:15:47;99081.81;;;4.44;85.83
57779;BME280;43608;49.486;9.640;2023-02-02T00:17:00;99063.09;;;4.32;86.24
57779;BME280;43608;49.486;9.640;2023-02-02T00:17:30;99066.88;;;4.41;86.05
57779;BME280;43608;49.486;9.640;2023-02-02T00:18:01;99063.00;;;4.27;86.04
57779;BME280;43608;49.486;9.640;2023-02-02T00:18:31;99031.91;;;4.09;86.38
57779;BME280;43608;49.486;9.640;2023-02-02T00:19:08;99080.81;;;4.39;86.43
57779;BME280;43608;49.486;9.640;2023-02-02T00:19:38;99080.78;;;4.37;86.49
57779;BME280;43608;49.486;9.640;2023-02-02T00:20:09;99075.53;;;4.37;86.52
57779;BME280;43608;49.486;9.640;2023-02-02T00:20:39;99073.78;;;4.38;86.34
57779;BME280;43608;49.486;9.640;2023-02-02T00:21:10;99084.31;;;4.39;86.59
57779;BME280;43608;49.486;9.640;2023-02-02T00:21:41;99077.16;;;4.34;86.20
57779;BME280;43608;49.486;9.640;2023-02-02T00:22:11;99091.31;;;4.39;86.57
57779;BME280;43608;49.486;9.640;2023-02-02T00:22:41;99082.41;;;4.34;86.77
57779;BME280;43608;49.486;9.640;2023-02-02T00:23:12;99065.59;;;4.25;86.91
57779;BME280;43608;49.486;9.640;2023-02-02T00:23:42;99069.06;;;4.24;86.96
57779;BME280;43608;49.486;9.640;2023-02-02T00:24:14;99076.13;;;4.27;86.98
57779;BME280;43608;49.486;9.640;2023-02-02T00:24:44;99090.31;;;4.35;87.13
57779;BME280;43608;49.486;9.640;2023-02-02T00:25:15;99088.50;;;4.33;87.01
57779;BME280;43608;49.486;9.640;2023-02-02T00:25:48;99087.53;;;4.29;87.46
57779;BME280;43608;49.486;9.640;2023-02-02T00:26:19;99084.88;;;4.27;87.28
57779;BME280;43608;49.486;9.640;2023-02-02T00:26:53;99095.53;;;4.34;87.70
57779;BME280;43608;49.486;9.640;2023-02-02T00:27:23;99099.91;;;4.33;87.68
57779;BME280;43608;49.486;9.640;2023-02-02T00:27:54;99092.88;;;4.32;87.84
57779;BME280;43608;49.486;9.640;2023-02-02T00:28:24;99076.00;;;4.24;87.99
57779;BME280;43608;49.486;9.640;2023-02-02T00:28:55;99084.75;;;4.23;87.95
57779;BME280;43608;49.486;9.640;2023-02-02T00:29:30;99104.22;;;4.31;87.79
57779;BME280;43608;49.486;9.640;2023-02-02T00:30:00;99085.69;;;4.26;87.85
57779;BME280;43608;49.486;9.640;2023-02-02T00:30:31;99087.44;;;4.26;87.99
57779;BME280;43608;49.486;9.640;2023-02-02T00:31:01;99096.19;;;4.26;88.04
57779;BME280;43608;49.486;9.640;2023-02-02T00:31:32;99103.22;;;4.27;88.19
57779;BME280;43608;49.486;9.640;2023-02-02T00:32:03;99088.13;;;4.19;88.30
57779;BME280;43608;49.486;9.640;2023-02-02T00:32:33;99105.88;;;4.29;88.30
57779;BME280;43608;49.486;9.640;2023-02-02T00:33:03;99089.03;;;4.19;88.56
57779;BME280;43608;49.486;9.640;2023-02-02T00:33:34;99074.84;;;4.12;88.50
57779;BME280;43608;49.486;9.640;2023-02-02T00:34:04;99089.88;;;4.18;88.42
57779;BME280;43608;49.486;9.640;2023-02-02T00:34:34;99095.91;;;4.16;88.57
57779;BME280;43608;49.486;9.640;2023-02-02T00:35:09;99108.47;;;4.27;88.77
57779;BME280;43608;49.486;9.640;2023-02-02T00:35:39;99090.69;;;4.17;88.47
57779;BME280;43608;49.486;9.640;2023-02-02T00:36:10;99099.59;;;4.22;88.98
57779;BME280;43608;49.486;9.640;2023-02-02T00:36:41;99107.56;;;4.25;88.86
57779;BME280;43608;49.486;9.640;2023-02-02T00:37:12;99106.59;;;4.22;89.01
57779;BME280;43608;49.486;9.640;2023-02-02T00:37:42;99097.81;;;4.21;88.93
57779;BME280;43608;49.486;9.640;2023-02-02T00:38:12;99115.44;;;4.25;89.17
57779;BME280;43608;49.486;9.640;2023-02-02T00:38:43;99094.31;;;4.21;89.42
57779;BME280;43608;49.486;9.640;2023-02-02T00:39:18;99099.63;;;4.24;89.35
57779;BME280;43608;49.486;9.640;2023-02-02T00:39:48;99099.69;;;4.25;89.14
57779;BME280;43608;49.486;9.640;2023-02-02T00:40:19;99095.09;;;4.18;89.10
57779;BME280;43608;49.486;9.640;2023-02-02T00:40:49;99101.34;;;4.22;89.17
57779;BME280;43608;49.486;9.640;2023-02-02T00:41:19;99105.78;;;4.24;89.50
57779;BME280;43608;49.486;9.640;2023-02-02T00:41:51;99097.06;;;4.25;89.13
57779;BME280;43608;49.486;9.640;2023-02-02T00:42:22;99031.25;;;3.86;89.46
57779;BME280;43608;49.486;9.640;2023-02-02T00:42:52;99083.78;;;4.19;89.68
57779;BME280;43608;49.486;9.640;2023-02-02T00:43:22;99088.25;;;4.23;89.54
57779;BME280;43608;49.486;9.640;2023-02-02T00:43:53;99085.44;;;4.17;89.44
57779;BME280;43608;49.486;9.640;2023-02-02T00:44:43;99081.97;;;4.17;89.77
57779;BME280;43608;49.486;9.640;2023-02-02T00:45:32;99083.63;;;4.14;89.74
57779;BME280;43608;49.486;9.640;2023-02-02T00:46:03;99096.06;;;4.20;89.70
57779;BME280;43608;49.486;9.640;2023-02-02T00:46:34;99063.16;;;4.01;89.60
57779;BME280;43608;49.486;9.640;2023-02-02T00:47:07;99073.94;;;4.12;89.90
57779;BME280;43608;49.486;9.640;2023-02-02T00:47:38;99083.59;;;4.13;89.83
57779;BME280;43608;49.486;9.640;2023-02-02T00:48:08;99099.53;;;4.19;89.82
57779;BME280;43608;49.486;9.640;2023-02-02T00:48:39;99098.72;;;4.22;89.68
57779;BME280;43608;49.486;9.640;2023-02-02T00:49:10;99064.84;;;3.99;89.89
57779;BME280;43608;49.486;9.640;2023-02-02T00:49:40;99094.09;;;4.13;89.88
57779;BME280;43608;49.486;9.640;2023-02-02T00:50:16;99082.72;;;4.12;89.92
57779;BME280;43608;49.486;9.640;2023-02-02T00:50:48;99109.97;;;4.18;89.97
57779;BME280;43608;49.486;9.640;2023-02-02T00:51:18;99110.94;;;4.21;89.92
57779;BME280;43608;49.486;9.640;2023-02-02T00:51:48;99101.31;;;4.20;90.00
57779;BME280;43608;49.486;9.640;2023-02-02T00:52:19;99074.72;;;4.08;89.91
57779;BME280;43608;49.486;9.640;2023-02-02T00:52:49;99084.41;;;4.10;90.00
57779;BME280;43608;49.486;9.640;2023-02-02T00:53:20;99095.84;;;4.12;90.22
57779;BME280;43608;49.486;9.640;2023-02-02T00:53:50;99084.47;;;4.13;90.04
57779;BME280;43608;49.486;9.640;2023-02-02T00:54:21;99103.97;;;4.22;90.12
57779;BME280;43608;49.486;9.640;2023-02-02T00:54:51;99081.97;;;4.17;90.27
57779;BME280;43608;49.486;9.640;2023-02-02T00:55:21;99094.28;;;4.19;90.17
57779;BME280;43608;49.486;9.640;2023-02-02T00:55:52;99073.09;;;4.13;89.98
57779;BME280;43608;49.486;9.640;2023-02-02T00:56:22;99064.91;;;4.01;90.22
57779;BME280;43608;49.486;9.640;2023-02-02T00:56:52;99072.09;;;4.08;90.44
57779;BME280;43608;49.486;9.640;2023-02-02T00:57:23;99067.75;;;4.08;90.16
57779;BME280;43608;49.486;9.640;2023-02-02T00:57:53;99085.44;;;4.17;90.43
57779;BME280;43608;49.486;9.640;2023-02-02T00:58:24;99084.63;;;4.18;90.33
57779;BME280;43608;49.486;9.640;2023-02-02T00:58:54;99090.66;;;4.16;90.20
57779;BME280;43608;49.486;9.640;2023-02-02T00:59:25;99072.84;;;4.04;90.39
57779;BME280;43608;49.486;9.640;2023-02-02T00:59:55;99092.34;;;4.13;90.82
57779;BME280;43608;49.486;9.640;2023-02-02T01:00:25;99105.56;;;4.17;90.58
57779;BME280;43608;49.486;9.640;2023-02-02T01:00:56;99106.41;;;4.16;90.68
57779;BME280;43608;49.486;9.640;2023-02-02T01:01:26;99087.09;;;4.13;90.70
57779;BME280;43608;49.486;9.640;2023-02-02T01:01:57;99077.16;;;4.02;90.62
57779;BME280;43608;49.486;9.640;2023-02-02T01:02:27;99084.28;;;4.06;90.58
57779;BME280;43608;49.486;9.640;2023-02-02T01:02:58;99095.97;;;4.19;90.87
57779;BME280;43608;49.486;9.640;2023-02-02T01:03:33;99098.50;;;4.14;90.76
57779;BME280;43608;49.486;9.640;2023-02-02T01:04:03;99097.47;;;4.09;90.75
57779;BME280;43608;49.486;9.640;2023-02-02T01:04:34;99095.88;;;4.14;90.77
57779;BME280;43608;49.486;9.640;2023-02-02T01:05:04;99102.84;;;4.13;90.79
57779;BME280;43608;49.486;9.640;2023-02-02T01:05:35;99090.34;;;4.03;91.11
57779;BME280;43608;49.486;9.640;2023-02-02T01:06:05;99094.81;;;4.07;90.83
57779;BME280;43608;49.486;9.640;2023-02-02T01:06:36;99085.13;;;4.05;91.27
57779;BME280;43608;49.486;9.640;2023-02-02T01:07:06;99088.72;;;4.08;91.12
57779;BME280;43608;49.486;9.640;2023-02-02T01:07:37;99113.44;;;4.17;90.99
57779;BME280;43608;49.486;9.640;2023-02-02T01:08:09;99113.44;;;4.17;91.10
57779;BME280;43608;49.486;9.640;2023-02-02T01:08:39;99104.66;;;4.16;91.36
57779;BME280;43608;49.486;9.640;2023-02-02T01:09:10;99087.66;;;4.02;90.94
57779;BME280;43608;49.486;9.640;2023-02-02T01:09:40;99096.63;;;4.10;91.23
57779;BME280;43608;49.486;9.640;2023-02-02T01:10:14;99100.31;;;4.17;91.31
57779;BME280;43608;49.486;9.640;2023-02-02T01:10:44;99101.97;;;4.13;91.18
57779;BME280;43608;49.486;9.640;2023-02-02T01:11:15;99076.25;;;4.00;91.29
57779;BME280;43608;49.486;9.640;2023-02-02T01:11:45;99103.75;;;4.14;91.33
57779;BME280;43608;49.486;9.640;2023-02-02T01:12:16;99106.41;;;4.16;91.23
57779;BME280;43608;49.486;9.640;2023-02-02T01:12:46;99110.84;;;4.18;91.37
57779;BME280;43608;49.486;9.640;2023-02-02T01:13:17;99093.88;;;4.05;91.09
57779;BME280;43608;49.486;9.640;2023-02-02T01:13:47;99105.47;;;4.13;91.35
57779;BME280;43608;49.486;9.640;2023-02-02T01:14:17;99085.97;;;4.04;91.29
57779;BME280;43608;49.486;9.640;2023-02-02T01:14:48;99108.09;;;4.13;91.39
57779;BME280;43608;49.486;9.640;2023-02-02T01:15:18;99096.47;;;4.04;91.13
57779;BME280;43608;49.486;9.640;2023-02-02T01:15:54;99050.34;;;3.80;91.05
57779;BME280;43608;49.486;9.640;2023-02-02T01:16:24;99109.91;;;4.16;90.96
57779;BME280;43608;49.486;9.640;2023-02-02T01:16:57;99100.22;;;4.13;91.30
57779;BME280;43608;49.486;9.640;2023-02-02T01:17:28;99106.47;;;4.19;91.36
57779;BME280;43608;49.486;9.640;2023-02-02T01:17:58;99110.78;;;4.15;91.05
57779;BME280;43608;49.486;9.640;2023-02-02T01:18:29;99104.72;;;4.18;91.28
57779;BME280;43608;49.486;9.640;2023-02-02T01:19:00;99099.25;;;4.10;91.10
57779;BME280;43608;49.486;9.640;2023-02-02T01:19:30;99117.84;;;4.18;91.12
57779;BME280;43608;49.486;9.640;2023-02-02T01:20:02;99107.34;;;4.18;91.38
57779;BME280;43608;49.486;9.640;2023-02-02T01:20:32;99107.34;;;4.18;91.37
57779;BME280;43608;49.486;9.640;2023-02-02T01:21:08;99078.91;;;4.01;91.27
57779;BME280;43608;49.486;9.640;2023-02-02T01:21:38;99103.75;;;4.14;91.48
57779;BME280;43608;49.486;9.640;2023-02-02T01:22:09;99089.53;;;4.06;91.55
57779;BME280;43608;49.486;9.640;2023-02-02T01:22:39;99065.81;;;4.03;91.50
57779;BME280;43608;49.486;9.640;2023-02-02T01:23:09;99097.59;;;4.13;91.49
57779;BME280;43608;49.486;9.640;2023-02-02T01:23:40;99070.31;;;4.07;91.34
57779;BME280;43608;49.486;9.640;2023-02-02T01:24:10;99087.09;;;4.13;91.36
57779;BME280;43608;49.486;9.640;2023-02-02T01:24:41;99085.25;;;4.09;91.31
57779;BME280;43608;49.486;9.640;2023-02-02T01:25:11;99094.16;;;4.16;91.41
57779;BME280;43608;49.486;9.640;2023-02-02T01:25:42;99110.84;;;4.18;91.61
57779;BME280;43608;49.486;9.640;2023-02-02T01:26:13;99093.31;;;4.17;91.54
57779;BME280;43608;49.486;9.640;2023-02-02T01:26:43;99075.63;;;4.08;91.61
57779;BME280;43608;49.486;9.640;2023-02-02T01:27:14;99071.06;;;4.03;91.62
57779;BME280;43608;49.486;9.640;2023-02-02T01:27:44;99099.41;;;4.16;91.54
57779;BME280;43608;49.486;9.640;2023-02-02T01:28:14;99068.47;;;4.04;91.75
57779;BME280;43608;49.486;9.640;2023-02-02T01:28:45;99071.06;;;4.03;91.67
57779;BME280;43608;49.486;9.640;2023-02-02T01:29:15;99076.53;;;4.10;91.58
57779;BME280;43608;49.486;9.640;2023-02-02T01:29:46;99066.66;;;4.02;91.85
57779;BME280;43608;49.486;9.640;2023-02-02T01:30:16;99104.66;;;4.16;91.99
57779;BME280;43608;49.486;9.640;2023-02-02T01:30:47;99100.97;;;4.09;91.73
57779;BME280;43608;49.486;9.640;2023-02-02T01:31:19;99090.66;;;4.16;91.77
57779;BME280;43608;49.486;9.640;2023-02-02T01:31:49;99094.94;;;4.12;92.00
57779;BME280;43608;49.486;9.640;2023-02-02T01:32:20;99091.41;;;4.10;92.15
57779;BME280;43608;49.486;9.640;2023-02-02T01:32:50;99078.03;;;4.01;91.85
57779;BME280;43608;49.486;9.640;2023-02-02T01:33:21;99096.75;;;4.14;91.89
57779;BME280;43608;49.486;9.640;2023-02-02T01:33:52;99074.53;;;4.02;92.15
57779;BME280;43608;49.486;9.640;2023-02-02T01:34:22;99084.16;;;4.01;92.03
57779;BME280;43608;49.486;9.640;2023-02-02T01:34:53;99031.03;;;3.78;92.19
57779;BME280;43608;49.486;9.640;2023-02-02T01:35:23;99096.72;;;4.13;92.24
57779;BME280;43608;49.486;9.640;2023-02-02T01:35:54;99102.91;;;4.15;92.16
57779;BME280;43608;49.486;9.640;2023-02-02T01:36:25;99080.69;;;4.02;92.13
57779;BME280;43608;49.486;9.640;2023-02-02T01:36:55;99084.41;;;4.10;92.22
57779;BME280;43608;49.486;9.640;2023-02-02T01:37:26;99097.59;;;4.13;92.17
57779;BME280;43608;49.486;9.640;2023-02-02T01:37:56;99087.06;;;4.12;92.30
57779;BME280;43608;49.486;9.640;2023-02-02T01:38:26;99078.06;;;4.02;92.34
57779;BME280;43608;49.486;9.640;2023-02-02T01:38:57;99085.25;;;4.09;92.31
57779;BME280;43608;49.486;9.640;2023-02-02T01:39:27;99055.28;;;4.01;92.32
57779;BME280;43608;49.486;9.640;2023-02-02T01:39:57;99079.09;;;4.07;92.52
57779;BME280;43608;49.486;9.640;2023-02-02T01:40:28;99060.53;;;4.01;92.40
57779;BME280;43608;49.486;9.640;2023-02-02T01:40:58;99060.69;;;4.06;92.57
57779;BME280;43608;49.486;9.640;2023-02-02T01:41:29;99089.81;;;4.17;92.54
57779;BME280;43608;49.486;9.640;2023-02-02T01:41:59;99078.28;;;4.10;92.50
57779;BME280;43608;49.486;9.640;2023-02-02T01:42:32;99079.19;;;4.12;92.47
57779;BME280;43608;49.486;9.640;2023-02-02T01:43:14;99056.06;;;3.97;92.45
57779;BME280;43608;49.486;9.640;2023-02-02T01:43:57;99089.00;;;4.18;92.57
57779;BME280;43608;49.486;9.640;2023-02-02T01:45:29;99066.09;;;4.13;93.67
57779;BME280;43608;49.486;9.640;2023-02-02T01:45:59;99084.03;;;4.28;93.85
57779;BME280;43608;49.486;9.640;2023-02-02T01:46:34;99081.53;;;4.33;93.63
57779;BME280;43608;49.486;9.640;2023-02-02T01:47:05;99058.44;;;4.21;94.08
57779;BME280;43608;49.486;9.640;2023-02-02T01:47:40;99062.19;;;4.29;94.15
57779;BME280;43608;49.486;9.640;2023-02-02T01:48:12;99084.44;;;4.44;93.98
57779;BME280;43608;49.486;9.640;2023-02-02T01:48:47;99058.03;;;4.38;93.84
57779;BME280;43608;49.486;9.640;2023-02-02T01:49:19;99067.84;;;4.45;93.79
57779;BME280;43608;49.486;9.640;2023-02-02T01:49:50;99062.75;;;4.51;93.71
57779;BME280;43608;49.486;9.640;2023-02-02T01:50:26;99060.91;;;4.49;93.39
57779;BME280;43608;49.486;9.640;2023-02-02T01:51:01;99069.91;;;4.57;93.42
57779;BME280;43608;49.486;9.640;2023-02-02T01:51:58;99071.78;;;4.62;93.15
57779;BME280;43608;49.486;9.640;2023-02-02T01:52:33;99041.81;;;4.53;92.89
57779;BME280;43608;49.486;9.640;2023-02-02T01:53:06;99066.66;;;4.67;92.86
57779;BME280;43608;49.486;9.640;2023-02-02T01:53:37;98996.63;;;4.31;92.47
57779;BME280;43608;49.486;9.640;2023-02-02T01:54:17;99060.56;;;4.68;92.46
57779;BME280;43608;49.486;9.640;2023-02-02T01:54:55;99045.44;;;4.58;92.10
57779;BME280;43608;49.486;9.640;2023-02-02T01:55:29;99043.88;;;4.66;91.78
57779;BME280;43608;49.486;9.640;2023-02-02T01:56:02;99060.63;;;4.71;91.05
57779;BME280;43608;49.486;9.640;2023-02-02T01:56:41;99033.25;;;4.61;90.67
57779;BME280;43608;49.486;9.640;2023-02-02T01:57:23;99054.47;;;4.71;90.46
57779;BME280;43608;49.486;9.640;2023-02-02T01:58:37;99057.03;;;4.68;90.19
57779;BME280;43608;49.486;9.640;2023-02-02T01:59:00;99053.16;;;4.52;89.73
57779;BME280;43608;49.486;9.640;2023-02-02T01:59:31;99069.13;;;4.61;90.15
57779;BME280;43608;49.486;9.640;2023-02-02T02:00:06;99061.13;;;4.56;90.06
57779;BME280;43608;49.486;9.640;2023-02-02T02:00:38;99060.19;;;4.53;89.93
57779;BME280;43608;49.486;9.640;2023-02-02T02:01:10;99057.47;;;4.50;90.17
57779;BME280;43608;49.486;9.640;2023-02-02T02:01:41;99062.59;;;4.45;90.18
57779;BME280;43608;49.486;9.640;2023-02-02T02:02:13;99064.34;;;4.46;90.31
57779;BME280;43608;49.486;9.640;2023-02-02T02:02:47;99037.88;;;4.37;90.14
57779;BME280;43608;49.486;9.640;2023-02-02T02:03:20;99067.03;;;4.47;90.33
57779;BME280;43608;49.486;9.640;2023-02-02T02:03:52;99059.03;;;4.43;90.12
57779;BME280;43608;49.486;9.640;2023-02-02T02:04:24;99067.84;;;4.45;90.43
57779;BME280;43608;49.486;9.640;2023-02-02T02:04:59;99066.03;;;4.42;90.56
57779;BME280;43608;49.486;9.640;2023-02-02T02:05:36;99062.41;;;4.37;90.71
57779;BME280;43608;49.486;9.640;2023-02-02T02:06:10;99066.84;;;4.40;90.75
57779;BME280;43608;49.486;9.640;2023-02-02T02:06:40;99074.75;;;4.41;90.90
57779;BME280;43608;49.486;9.640;2023-02-02T02:07:12;99059.63;;;4.33;90.91
57779;BME280;43608;49.486;9.640;2023-02-02T02:07:43;99071.13;;;4.36;90.93
57779;BME280;43608;49.486;9.640;2023-02-02T02:08:20;99055.16;;;4.28;90.87
57779;BME280;43608;49.486;9.640;2023-02-02T02:08:57;99073.69;;;4.35;91.18
57779;BME280;43608;49.486;9.640;2023-02-02T02:09:29;99057.81;;;4.30;91.10
57779;BME280;43608;49.486;9.640;2023-02-02T02:10:00;99074.56;;;4.35;91.31
57779;BME280;43608;49.486;9.640;2023-02-02T02:10:30;99058.63;;;4.27;91.11
57779;BME280;43608;49.486;9.640;2023-02-02T02:11:01;99066.59;;;4.30;91.49
57779;BME280;43608;49.486;9.640;2023-02-02T02:11:33;99083.22;;;4.31;91.53
57779;BME280;43608;49.486;9.640;2023-02-02T02:12:10;99095.50;;;4.32;91.59
57779;BME280;43608;49.486;9.640;2023-02-02T02:12:44;99048.75;;;4.19;91.64
57779;BME280;43608;49.486;9.640;2023-02-02T02:13:16;99071.72;;;4.26;91.69
57779;BME280;43608;49.486;9.640;2023-02-02T02:13:49;99070.03;;;4.28;91.84
57779;BME280;43608;49.486;9.640;2023-02-02T02:14:39;99065.41;;;4.19;91.85
57779;BME280;43608;49.486;9.640;2023-02-02T02:15:29;99073.53;;;4.28;91.64
57779;BME280;43608;49.486;9.640;2023-02-02T02:21:31;99078.72;;;4.25;92.26
57779;BME280;43608;49.486;9.640;2023-02-02T02:22:39;99083.00;;;4.23;92.19
57779;BME280;43608;49.486;9.640;2023-02-02T02:24:03;99081.22;;;4.22;92.26
57779;BME280;43608;49.486;9.640;2023-02-02T02:25:29;99070.50;;;4.14;92.28
57779;BME280;43608;49.486;9.640;2023-02-02T02:27:19;99060.72;;;4.07;92.43
57779;BME280;43608;49.486;9.640;2023-02-02T02:28:11;99064.44;;;4.16;92.41
57779;BME280;43608;49.486;9.640;2023-02-02T02:34:15;99012.63;;;3.75;92.63
57779;BME280;43608;49.486;9.640;2023-02-02T02:35:44;99065.06;;;4.07;92.96
57779;BME280;43608;49.486;9.640;2023-02-02T02:40:40;99057.97;;;4.03;93.01
57779;BME280;43608;49.486;9.640;2023-02-02T02:41:19;99056.06;;;3.97;92.98
57779;BME280;43608;49.486;9.640;2023-02-02T02:41:56;99066.66;;;4.02;93.10
57779;BME280;43608;49.486;9.640;2023-02-02T02:42:31;99060.53;;;4.01;92.88
57779;BME280;43608;49.486;9.640;2023-02-02T02:43:10;99063.91;;;3.95;92.92
57779;BME280;43608;49.486;9.640;2023-02-02T02:43:45;99043.38;;;3.82;92.88
57779;BME280;43608;49.486;9.640;2023-02-02T02:44:18;99085.00;;;4.00;93.01
57779;BME280;43608;49.486;9.640;2023-02-02T02:44:52;99071.75;;;3.95;93.14
57779;BME280;43608;49.486;9.640;2023-02-02T02:45:26;99085.78;;;3.97;93.39
57779;BME280;43608;49.486;9.640;2023-02-02T02:45:57;99065.44;;;3.89;93.22
57779;BME280;43608;49.486;9.640;2023-02-02T02:46:28;99021.03;;;3.63;93.10
57779;BME280;43608;49.486;9.640;2023-02-02T02:46:58;99071.66;;;3.92;93.15
57779;BME280;43608;49.486;9.640;2023-02-02T02:47:30;99080.53;;;3.97;93.54
57779;BME280;43608;49.486;9.640;2023-02-02T02:48:02;99069.13;;;3.95;93.58
57779;BME280;43608;49.486;9.640;2023-02-02T02:48:32;99046.00;;;3.82;93.22
57779;BME280;43608;49.486;9.640;2023-02-02T02:49:03;99063.81;;;3.94;93.32
57779;BME280;43608;49.486;9.640;2023-02-02T02:49:41;99061.19;;;3.94;93.68
57779;BME280;43608;49.486;9.640;2023-02-02T02:50:12;99055.81;;;3.88;93.28
57779;BME280;43608;49.486;9.640;2023-02-02T02:50:42;99066.50;;;3.95;93.33
57779;BME280;43608;49.486;9.640;2023-02-02T02:52:07;99069.19;;;3.97;93.38
57779;BME280;43608;49.486;9.640;2023-02-02T02:52:39;99041.78;;;3.87;93.25
57779;BME280;43608;49.486;9.640;2023-02-02T02:53:16;99048.19;;;3.97;93.46
57779;BME280;43608;49.486;9.640;2023-02-02T02:53:47;99077.84;;;3.94;93.43
57779;BME280;43608;49.486;9.640;2023-02-02T02:54:22;99059.53;;;3.96;93.49
57779;BME280;43608;49.486;9.640;2023-02-02T02:54:55;99050.72;;;3.94;93.32
57779;BME280;43608;49.486;9.640;2023-02-02T02:55:30;99048.06;;;3.92;93.55
57779;BME280;43608;49.486;9.640;2023-02-02T02:56:23;99052.41;;;3.92;93.63
57779;BME280;43608;49.486;9.640;2023-02-02T02:58:53;99081.34;;;3.95;93.66
57779;BME280;43608;49.486;9.640;2023-02-02T03:01:13;99067.31;;;3.93;93.58
57779;BME280;43608;49.486;9.640;2023-02-02T03:04:39;99079.66;;;3.97;93.37
57779;BME280;43608;49.486;9.640;2023-02-02T03:05:32;99076.06;;;3.93;93.26
57779;BME280;43608;49.486;9.640;2023-02-02T03:06:15;99067.97;;;3.86;93.30
57779;BME280;43608;49.486;9.640;2023-02-02T03:06:56;99061.69;;;3.80;93.49
57779;BME280;43608;49.486;9.640;2023-02-02T03:07:36;99082.19;;;3.94;93.31
57779;BME280;43608;49.486;9.640;2023-02-02T03:09:21;99070.81;;;3.93;93.67
57779;BME280;43608;49.486;9.640;2023-02-02T03:09:57;99057.38;;;3.81;93.82
57779;BME280;43608;49.486;9.640;2023-02-02T03:10:30;99051.41;;;3.87;93.84
57779;BME280;43608;49.486;9.640;2023-02-02T03:11:03;99070.78;;;3.92;93.68
57779;BME280;43608;49.486;9.640;2023-02-02T03:11:35;99065.50;;;3.90;93.88
57779;BME280;43608;49.486;9.640;2023-02-02T03:12:05;99073.47;;;3.95;93.81
57779;BME280;43608;49.486;9.640;2023-02-02T03:12:46;99069.03;;;3.92;93.80
57779;BME280;43608;49.486;9.640;2023-02-02T03:13:17;99045.78;;;3.74;94.05
57779;BME280;43608;49.486;9.640;2023-02-02T03:13:48;99091.00;;;3.96;93.96
57779;BME280;43608;49.486;9.640;2023-02-02T03:14:18;99027.94;;;3.61;93.81
57779;BME280;43608;49.486;9.640;2023-02-02T03:14:49;99065.28;;;3.83;93.87
57779;BME280;43608;49.486;9.640;2023-02-02T03:15:19;99063.53;;;3.83;94.02
57779;BME280;43608;49.486;9.640;2023-02-02T03:15:50;99068.81;;;3.85;94.15
57779;BME280;43608;49.486;9.640;2023-02-02T03:16:20;99071.38;;;3.83;94.03
57779;BME280;43608;49.486;9.640;2023-02-02T03:16:51;99076.84;;;3.91;94.03
57779;BME280;43608;49.486;9.640;2023-02-02T03:17:21;99080.34;;;3.91;94.24
57779;BME280;43608;49.486;9.640;2023-02-02T03:17:52;99089.16;;;3.93;94.35
57779;BME280;43608;49.486;9.640;2023-02-02T03:18:26;99083.06;;;3.93;94.10
57779;BME280;43608;49.486;9.640;2023-02-02T03:18:57;99052.84;;;3.77;94.16
57779;BME280;43608;49.486;9.640;2023-02-02T03:19:28;99068.78;;;3.83;94.21
57779;BME280;43608;49.486;9.640;2023-02-02T03:19:58;99087.38;;;3.92;94.65
57779;BME280;43608;49.486;9.640;2023-02-02T03:20:28;99082.09;;;3.91;94.58
57779;BME280;43608;49.486;9.640;2023-02-02T03:20:59;99047.47;;;3.71;94.15
57779;BME280;43608;49.486;9.640;2023-02-02T03:21:30;99082.09;;;3.91;94.45
57779;BME280;43608;49.486;9.640;2023-02-02T03:22:01;99077.66;;;3.88;94.55
57779;BME280;43608;49.486;9.640;2023-02-02T03:22:31;99075.84;;;3.86;94.49
57779;BME280;43608;49.486;9.640;2023-02-02T03:23:02;99080.28;;;3.88;94.71
57779;BME280;43608;49.486;9.640;2023-02-02T03:23:32;99068.78;;;3.83;94.29
57779;BME280;43608;49.486;9.640;2023-02-02T03:24:03;99070.56;;;3.84;94.74